Time;durP1;ratioP1;P1;durP2;ratioP2;P2;SDS_P1;SDS_P2;PMS_P1;PMS_P2;Temp;Humidity;BMP_temperature;BMP_pressure;BME280_temperature;BME280_humidity;BME280_pressure;Samples;Min_cycle;Max_cycle;Signal;HPM_P1;HPM_P2
2022/09/28 14:51:25;;;;;;;30.40;17.90;;;;;;;18.42;71.64;98090.92;23495;1323;4195180;-64
2022/09/28 14:53:59;;;;;;;29.00;18.10;;;;;;;18.29;72.51;98094.86;24825;1327;3048754;-67
2022/09/28 14:56:30;;;;;;;30.50;18.30;;;;;;;18.18;72.65;98087.80;24825;1326;3054376;-64
2022/09/28 14:58:59;;;;;;;28.50;18.20;;;;;;;18.04;73.18;98088.80;24901;1326;3026435;-65
2022/09/28 15:01:29;;;;;;;27.90;10.30;;;;;;;17.94;73.69;98091.33;24667;1329;3027423;-63
2022/09/28 15:04:03;;;;;;;24.30;14.10;;;;;;;18.29;72.88;98084.19;24861;1326;3026663;-64
2022/09/28 15:06:46;;;;;;;33.00;17.00;;;;;;;18.50;71.69;98085.74;24810;1326;3052483;-64
2022/09/28 15:09:34;;;;;;;31.90;15.30;;;;;;;18.36;71.76;98087.20;24744;1327;3056846;-66
2022/09/28 15:12:11;;;;;;;29.40;16.60;;;;;;;18.26;72.08;98092.52;24857;1326;3049447;-67
2022/09/28 15:14:47;;;;;;;25.90;16.70;;;;;;;18.05;72.49;98090.73;24787;1327;3051999;-65
2022/09/28 15:17:22;;;;;;;26.90;17.20;;;;;;;17.90;73.37;98094.79;24871;1326;3051848;-67
2022/09/28 15:20:19;;;;;;;31.30;18.30;;;;;;;17.64;74.23;98103.59;24869;1325;3069713;-67
2022/09/28 15:22:50;;;;;;;31.20;19.00;;;;;;;17.39;75.44;98114.33;24776;1327;3052325;-69
2022/09/28 15:25:20;;;;;;;19.40;10.70;;;;;;;17.23;76.09;98115.11;24805;1327;3027469;-65
2022/09/28 15:27:51;;;;;;;24.40;14.50;;;;;;;17.65;74.95;98117.80;24820;1327;3026937;-65
2022/09/28 15:30:31;;;;;;;29.90;16.70;;;;;;;17.93;73.64;98117.71;24829;1326;3027263;-64
2022/09/28 15:36:32;;;;;;;33.30;17.80;;;;;;;17.42;75.29;98126.69;24859;1326;3054652;-66
2022/09/28 15:39:04;;;;;;;27.80;17.90;;;;;;;17.18;76.36;98133.54;24830;1327;3051480;-66
2022/09/28 15:41:34;;;;;;;30.60;19.60;;;;;;;17.03;76.97;98138.55;24750;1327;3027067;-66
2022/09/28 15:44:07;;;;;;;20.50;11.60;;;;;;;16.80;78.26;98144.73;24758;1327;3027330;-64
2022/09/28 15:46:46;;;;;;;28.80;15.60;;;;;;;17.22;77.10;98141.80;24818;1326;3051188;-66
2022/09/28 15:49:27;;;;;;;34.30;18.80;;;;;;;17.54;75.76;98139.05;24788;1327;3071595;-65
2022/09/28 15:51:56;;;;;;;29.20;17.10;;;;;;;17.43;75.59;98147.00;24783;1327;3048859;-65
2022/09/28 15:54:27;;;;;;;31.00;18.10;;;;;;;17.19;76.52;98149.95;24800;1327;3026817;-64
2022/09/28 15:56:58;;;;;;;34.00;21.00;;;;;;;16.99;77.45;98153.83;24798;1327;3070213;-68
2022/09/28 15:59:31;;;;;;;35.20;21.00;;;;;;;16.82;78.22;98158.07;24819;1326;3026769;-68
2022/09/28 16:02:02;;;;;;;21.70;12.50;;;;;;;16.65;78.81;98157.61;24823;1326;3027053;-66
2022/09/28 16:04:35;;;;;;;27.40;15.20;;;;;;;17.07;77.82;98155.59;24889;1327;3027048;-66
2022/09/28 16:07:17;;;;;;;28.00;16.80;;;;;;;17.48;75.49;98158.41;24864;1327;3027798;-68
2022/09/28 16:09:58;;;;;;;30.80;16.40;;;;;;;17.49;75.28;98158.36;24875;1325;3049461;-65
2022/09/28 16:12:36;;;;;;;31.70;18.60;;;;;;;17.29;75.62;98157.30;24866;1326;3053066;-63
2022/09/28 16:15:09;;;;;;;29.90;18.60;;;;;;;17.09;76.63;98155.64;24897;1326;3053966;-66
2022/09/28 16:17:42;;;;;;;30.80;17.30;;;;;;;16.89;77.10;98162.82;24900;1327;3068918;-69
2022/09/28 16:20:21;;;;;;;18.20;10.90;;;;;;;16.72;78.33;98164.77;24906;1326;3027068;-69
2022/09/28 16:22:51;;;;;;;28.70;14.00;;;;;;;17.05;77.47;98166.85;24778;1329;3052561;-67
2022/09/28 16:25:23;;;;;;;30.00;15.40;;;;;;;17.28;76.23;98164.55;24849;1327;3026856;-67
2022/09/28 16:27:52;;;;;;;24.80;14.90;;;;;;;17.08;76.34;98167.69;24842;1327;3026187;-66
2022/09/28 16:30:23;;;;;;;29.10;15.20;;;;;;;16.76;77.67;98170.28;24888;1327;3027319;-67
2022/09/28 16:32:56;;;;;;;23.60;15.30;;;;;;;16.49;78.85;98181.55;24822;1327;3026617;-68
2022/09/28 16:35:36;;;;;;;23.70;14.20;;;;;;;16.30;79.29;98185.71;24851;1326;3056735;-68
2022/09/28 16:38:15;;;;;;;16.50;9.00;;;;;;;16.08;80.64;98185.14;24854;1328;3052811;-63
2022/09/28 16:40:48;;;;;;;18.70;10.20;;;;;;;16.60;78.69;98181.17;24853;1327;3055833;-65
2022/09/28 16:43:25;;;;;;;18.20;10.80;;;;;;;16.84;77.18;98186.50;24844;1327;3029712;-64
2022/09/28 16:45:56;;;;;;;20.20;10.50;;;;;;;16.65;76.89;98192.45;24850;1326;3069218;-67
2022/09/28 16:48:27;;;;;;;17.20;10.50;;;;;;;16.32;78.14;98200.16;24845;1326;3026398;-65
2022/09/28 16:50:56;;;;;;;19.10;10.90;;;;;;;16.03;79.17;98205.41;24727;1327;3027299;-67
2022/09/28 16:56:15;;;;;;;11.50;5.70;;;;;;;15.79;79.99;98217.63;24779;1327;3049559;-65
2022/09/28 16:58:46;;;;;;;16.00;8.30;;;;;;;16.24;78.54;98219.84;24826;1327;3026641;-66
2022/09/28 17:01:16;;;;;;;18.00;10.50;;;;;;;16.41;77.62;98219.54;24779;1327;3068775;-66
2022/09/28 17:03:47;;;;;;;14.50;9.10;;;;;;;16.39;77.17;98218.66;24838;1325;3026545;-64
2022/09/28 17:06:17;;;;;;;18.10;9.90;;;;;;;16.20;77.77;98220.65;24777;1327;3052170;-65
2022/09/28 17:08:46;;;;;;;14.70;9.60;;;;;;;15.94;78.55;98219.94;24827;1325;3026748;-65
2022/09/28 17:11:18;;;;;;;15.90;9.50;;;;;;;15.78;79.40;98223.80;24781;1327;3026521;-66
2022/09/28 17:13:48;;;;;;;9.80;5.50;;;;;;;15.62;80.44;98221.45;24837;1327;3027402;-66
2022/09/28 17:16:20;;;;;;;11.40;7.00;;;;;;;16.04;79.15;98219.98;24820;1327;3026510;-67
2022/09/28 17:18:49;;;;;;;13.90;8.50;;;;;;;16.41;77.55;98217.95;24886;1325;3026286;-65
2022/09/28 17:21:19;;;;;;;14.50;8.50;;;;;;;16.43;76.93;98225.15;24823;1327;3026091;-64
2022/09/28 17:23:48;;;;;;;12.30;8.60;;;;;;;16.13;77.70;98230.59;24861;1326;3051677;-66
2022/09/28 17:26:22;;;;;;;16.40;9.00;;;;;;;15.76;79.26;98230.58;24894;1326;3026853;-66
2022/09/28 17:28:51;;;;;;;19.60;9.90;;;;;;;15.60;80.09;98238.31;24732;1327;3049029;-66
2022/09/28 17:31:20;;;;;;;22.00;6.40;;;;;;;15.40;81.14;98239.69;24803;1327;3026104;-65
2022/09/28 17:33:50;;;;;;;14.70;7.40;;;;;;;15.85;79.98;98236.38;24872;1327;3026994;-66
2022/09/28 17:36:19;;;;;;;14.40;9.20;;;;;;;16.12;78.40;98229.46;24841;1326;3052351;-65
2022/09/28 17:39:12;;;;;;;15.90;9.20;;;;;;;16.13;78.20;98233.91;24815;1327;3055662;-67
2022/09/28 17:41:42;;;;;;;16.90;9.40;;;;;;;16.03;78.45;98235.81;24862;1327;3051988;-67
2022/09/28 17:44:14;;;;;;;19.10;10.20;;;;;;;15.79;79.06;98236.77;24880;1327;3026780;-66
2022/09/28 17:46:48;;;;;;;14.00;9.30;;;;;;;15.55;79.94;98236.70;24933;1325;3055883;-70
2022/09/28 17:49:18;;;;;;;8.20;4.90;;;;;;;15.42;80.61;98233.83;24813;1327;3054279;-68
2022/09/28 17:51:48;;;;;;;14.80;7.30;;;;;;;15.85;79.35;98228.09;24842;1327;3030193;-68
2022/09/28 17:54:19;;;;;;;15.40;8.20;;;;;;;16.34;77.32;98218.14;24856;1326;3026970;-68
2022/09/28 17:56:51;;;;;;;16.90;8.50;;;;;;;16.37;76.54;98224.69;24937;1326;3054903;-71
2022/09/28 17:59:20;;;;;;;12.60;7.80;;;;;;;16.10;77.31;98227.89;24853;1326;3026577;-67
2022/09/28 18:01:49;;;;;;;17.10;9.00;;;;;;;15.80;78.61;98229.13;24883;1328;3051536;-69
2022/09/28 18:04:20;;;;;;;16.10;9.10;;;;;;;15.62;79.26;98235.83;24874;1325;3026423;-68
2022/09/28 18:06:53;;;;;;;11.90;5.40;;;;;;;15.43;80.16;98242.73;24796;1326;3055044;-66
2022/09/28 18:09:23;;;;;;;14.20;7.10;;;;;;;15.90;79.08;98248.61;24823;1327;3026829;-73
2022/09/28 18:11:59;;;;;;;12.90;8.70;;;;;;;16.29;77.18;98247.81;24866;1326;3027244;-68
2022/09/28 18:14:29;;;;;;;17.20;8.60;;;;;;;16.23;76.90;98249.72;24862;1326;3052976;-71
2022/09/28 18:16:58;;;;;;;15.50;9.10;;;;;;;15.95;77.72;98251.50;24779;1327;3026623;-67
2022/09/28 18:19:28;;;;;;;15.90;9.60;;;;;;;15.65;78.66;98246.18;24791;1327;3026670;-65
2022/09/28 18:21:57;;;;;;;21.80;10.80;;;;;;;15.49;79.46;98249.22;24846;1326;3026859;-67
2022/09/28 18:24:26;;;;;;;12.40;5.90;;;;;;;15.45;79.74;98256.77;24841;1327;3050569;-63
2022/09/28 18:26:55;;;;;;;13.30;7.70;;;;;;;15.87;78.41;98256.50;24836;1325;3026157;-69
2022/09/28 18:29:24;;;;;;;19.50;9.90;;;;;;;16.12;77.17;98259.23;24858;1326;3052733;-68
2022/09/28 18:31:53;;;;;;;15.00;8.90;;;;;;;16.23;76.65;98261.48;24849;1326;3026437;-68
2022/09/28 18:34:22;;;;;;;17.50;10.00;;;;;;;16.13;76.84;98260.91;24827;1329;3052286;-64
2022/09/28 18:36:51;;;;;;;16.20;9.60;;;;;;;15.93;77.23;98265.46;24846;1326;3028706;-67
2022/09/28 18:39:20;;;;;;;16.40;9.90;;;;;;;15.83;77.69;98269.56;24910;1325;3056438;-64
2022/09/28 18:41:49;;;;;;;7.20;4.80;;;;;;;15.63;78.35;98273.20;24797;1327;3028582;-66
2022/09/28 18:44:18;;;;;;;13.10;7.30;;;;;;;15.97;77.59;98267.83;24865;1326;3026548;-64
2022/09/28 18:46:47;;;;;;;15.70;7.50;;;;;;;16.29;76.25;98268.33;24866;1327;3055544;-62
2022/09/28 18:49:16;;;;;;;13.50;8.20;;;;;;;16.29;75.88;98270.11;24785;1327;3027110;-68
2022/09/28 18:51:45;;;;;;;13.90;8.20;;;;;;;16.03;76.49;98270.02;24811;1327;3027411;-67
2022/09/28 18:54:15;;;;;;;11.30;7.70;;;;;;;15.88;77.30;98271.92;24815;1327;3056530;-65
2022/09/28 18:56:45;;;;;;;14.00;8.70;;;;;;;15.68;78.01;98259.84;24818;1326;3026654;-68
2022/09/28 18:59:14;;;;;;;7.90;4.70;;;;;;;15.68;77.94;98267.09;24869;1326;3026812;-65
2022/09/28 19:01:43;;;;;;;10.30;5.90;;;;;;;16.10;77.05;98273.42;24848;1325;3058929;-66
2022/09/28 19:04:12;;;;;;;15.80;8.50;;;;;;;16.49;75.12;98272.75;24837;1326;3026637;-68
2022/09/28 19:06:43;;;;;;;13.30;7.80;;;;;;;16.57;75.08;98275.30;24804;1327;3053259;-65
2022/09/28 19:09:12;;;;;;;14.10;7.40;;;;;;;16.41;74.93;98279.70;24909;1327;3027290;-67
2022/09/28 19:11:42;;;;;;;14.70;8.40;;;;;;;16.14;75.71;98281.33;24815;1327;3026550;-64
2022/09/28 19:14:16;;;;;;;13.00;8.00;;;;;;;15.95;76.40;98282.16;24785;1327;3026595;-65
2022/09/28 19:16:47;;;;;;;;;;;;;;;15.74;77.22;98279.89;24822;1325;3051544;-64
2022/09/28 19:19:17;;;;;;;13.60;7.40;;;;;;;15.54;77.98;98279.54;24742;1326;3027305;-63
2022/09/28 19:21:46;;;;;;;7.30;4.30;;;;;;;15.50;77.96;98288.30;24832;1326;3054802;-65
2022/09/28 19:24:16;;;;;;;10.10;5.80;;;;;;;15.82;77.48;98294.63;24784;1325;3028637;-63
2022/09/28 19:26:46;;;;;;;12.30;7.20;;;;;;;16.14;76.12;98292.82;24860;1325;3050426;-64
2022/09/28 19:29:15;;;;;;;10.10;7.10;;;;;;;16.28;75.73;98300.55;24871;1327;3026872;-63
2022/09/28 19:31:44;;;;;;;12.20;7.70;;;;;;;16.15;75.84;98303.10;24780;1329;3026605;-64
2022/09/28 19:34:14;;;;;;;13.50;8.50;;;;;;;15.94;76.28;98301.33;24766;1327;3026436;-65
2022/09/28 19:36:45;;;;;;;16.90;9.20;;;;;;;15.67;77.47;98306.80;24804;1327;3027527;-68
2022/09/28 19:39:14;;;;;;;14.20;8.10;;;;;;;15.47;78.31;98307.96;24858;1327;3026153;-66
2022/09/28 19:41:46;;;;;;;8.90;5.10;;;;;;;15.30;79.09;98313.01;24756;1326;3067577;-64
2022/09/28 19:44:23;;;;;;;12.10;7.00;;;;;;;15.78;77.94;98307.48;24811;1329;3048849;-66
2022/09/28 19:46:55;;;;;;;13.10;8.20;;;;;;;16.00;76.59;98308.54;24783;1326;3054069;-67
2022/09/28 19:49:25;;;;;;;13.80;8.60;;;;;;;15.80;77.01;98313.02;24927;1327;3026210;-67
2022/09/28 19:51:55;;;;;;;13.70;9.10;;;;;;;15.54;77.93;98318.57;24866;1327;3029414;-65
2022/09/28 19:54:25;;;;;;;13.80;9.20;;;;;;;15.37;78.44;98323.22;24890;1327;3026668;-69
2022/09/28 19:56:55;;;;;;;14.50;9.00;;;;;;;15.13;79.43;98333.85;24852;1327;3028814;-68
2022/09/28 19:59:24;;;;;;;10.70;5.60;;;;;;;14.94;80.68;98339.05;24874;1327;3028310;-66
2022/09/28 20:01:55;;;;;;;17.10;8.50;;;;;;;15.40;79.19;98334.88;24862;1327;3051839;-66
2022/09/28 20:04:23;;;;;;;12.20;8.10;;;;;;;15.80;77.23;98335.91;24796;1326;3026765;-69
2022/09/28 20:06:52;;;;;;;12.30;8.30;;;;;;;15.63;77.28;98332.98;24755;1329;3028678;-67
2022/09/28 20:09:24;;;;;;;12.50;8.00;;;;;;;15.39;78.20;98339.64;24741;1326;3049065;-64
2022/09/28 20:11:53;;;;;;;14.00;8.10;;;;;;;15.39;78.24;98345.64;24744;1327;3026473;-63
2022/09/28 20:14:23;;;;;;;13.90;8.90;;;;;;;15.18;78.91;98350.27;24784;1329;3057021;-65
2022/09/28 20:16:52;;;;;;;7.50;4.90;;;;;;;15.05;79.66;98348.52;24829;1330;3026228;-63
2022/09/28 20:19:22;;;;;;;9.80;6.40;;;;;;;15.43;78.69;98344.19;24777;1326;3026884;-64
2022/09/28 20:21:51;;;;;;;10.40;7.40;;;;;;;15.79;77.01;98339.38;24723;1327;3057172;-63
2022/09/28 20:24:20;;;;;;;11.40;6.80;;;;;;;15.79;76.62;98337.98;24768;1327;3026506;-64
2022/09/28 20:26:50;;;;;;;12.90;8.00;;;;;;;15.72;76.91;98344.30;24689;1327;3054772;-62
2022/09/28 20:29:19;;;;;;;11.70;8.20;;;;;;;15.53;77.49;98345.48;24826;1327;3026925;-66
2022/09/28 20:31:50;;;;;;;14.80;7.80;;;;;;;15.48;77.72;98347.56;24777;1325;3052112;-66
2022/09/28 20:34:19;;;;;;;8.90;4.70;;;;;;;15.44;77.89;98345.95;24771;1329;3026674;-66
2022/09/28 20:36:52;;;;;;;10.00;5.90;;;;;;;15.99;76.91;98345.67;24796;1326;3026622;-66
2022/09/28 20:39:21;;;;;;;11.00;6.90;;;;;;;16.52;74.93;98347.61;24771;1330;3055256;-64
2022/09/28 20:41:50;;;;;;;9.30;6.70;;;;;;;16.58;74.15;98350.48;24750;1329;3026393;-66
2022/09/28 20:44:19;;;;;;;11.80;7.70;;;;;;;16.43;74.16;98356.45;24881;1327;3048941;-64
2022/09/28 20:46:50;;;;;;;10.60;7.40;;;;;;;16.16;75.00;98359.14;24779;1326;3026464;-68
2022/09/28 20:49:21;;;;;;;11.50;7.70;;;;;;;16.03;75.40;98354.52;24816;1327;3028278;-67
2022/09/28 20:51:50;;;;;;;16.60;7.60;;;;;;;15.90;75.49;98356.98;24809;1326;3028468;-63
2022/09/28 20:54:20;;;;;;;8.00;4.40;;;;;;;15.74;76.36;98360.67;24767;1327;3050877;-63
2022/09/28 20:56:49;;;;;;;10.50;6.60;;;;;;;16.22;75.54;98361.40;24730;1329;3025932;-65
2022/09/28 20:59:21;;;;;;;12.30;7.80;;;;;;;16.62;74.01;98357.31;24899;1326;3026718;-66
2022/09/28 21:01:51;;;;;;;10.10;6.80;;;;;;;16.63;73.76;98357.81;24843;1326;3051405;-61
2022/09/28 21:04:20;;;;;;;12.00;8.10;;;;;;;16.46;74.23;98355.61;24772;1326;3026345;-62
2022/09/28 21:06:49;;;;;;;12.30;8.60;;;;;;;16.32;74.71;98357.16;24765;1326;3051617;-63
2022/09/28 21:09:18;;;;;;;23.30;9.10;;;;;;;16.15;74.94;98353.12;24882;1326;3026082;-65
2022/09/28 21:11:47;;;;;;;13.50;8.90;;;;;;;15.93;75.62;98358.49;24799;1326;3070046;-68
2022/09/28 21:14:16;;;;;;;10.10;5.00;;;;;;;15.78;76.19;98359.11;24895;1326;3026780;-69
2022/09/28 21:16:47;;;;;;;11.50;7.50;;;;;;;16.22;75.44;98361.54;24854;1326;3051231;-63
2022/09/28 21:19:16;;;;;;;11.90;8.60;;;;;;;16.64;74.10;98361.70;24766;1325;3026373;-63
2022/09/28 21:21:45;;;;;;;11.00;8.10;;;;;;;16.66;73.87;98369.15;24845;1326;3052624;-63
2022/09/28 21:24:14;;;;;;;13.20;8.40;;;;;;;16.45;73.98;98371.77;24855;1326;3027318;-67
2022/09/28 21:26:43;;;;;;;16.50;9.50;;;;;;;16.24;74.51;98373.54;24762;1327;3026360;-62
2022/09/28 21:29:13;;;;;;;14.00;9.50;;;;;;;16.00;74.97;98377.05;24832;1326;3026477;-68
2022/09/28 21:31:46;;;;;;;15.90;10.00;;;;;;;15.75;75.93;98381.41;24836;1326;3051272;-65
2022/09/28 21:34:20;;;;;;;10.30;5.50;;;;;;;15.58;76.69;98390.85;24759;1330;3027433;-61
2022/09/28 21:36:53;;;;;;;14.30;7.80;;;;;;;16.06;75.51;98384.58;24731;1330;3051613;-62
2022/09/28 21:39:22;;;;;;;13.20;8.40;;;;;;;16.45;74.16;98382.41;24839;1327;3053330;-63
2022/09/28 21:41:51;;;;;;;11.90;8.10;;;;;;;16.44;74.14;98385.88;24702;1329;3026883;-65
2022/09/28 21:44:21;;;;;;;12.70;8.90;;;;;;;16.24;74.54;98388.08;24777;1327;3052005;-61
2022/09/28 21:46:50;;;;;;;15.70;9.70;;;;;;;16.01;74.92;98389.30;24804;1327;3026446;-65
2022/09/28 21:49:19;;;;;;;14.90;10.10;;;;;;;15.78;75.64;98394.77;24734;1327;3070830;-64
2022/09/28 21:51:48;;;;;;;19.10;11.30;;;;;;;15.58;76.26;98396.70;24805;1327;3026610;-63
2022/09/28 21:54:17;;;;;;;7.90;5.20;;;;;;;15.42;76.65;98401.57;24741;1327;3052153;-65
2022/09/28 21:56:47;;;;;;;15.60;8.10;;;;;;;15.81;76.23;98397.61;24772;1325;3026087;-65
2022/09/28 21:59:16;;;;;;;13.60;9.60;;;;;;;16.25;74.72;98400.27;24831;1327;3027080;-64
2022/09/28 22:01:46;;;;;;;15.70;9.60;;;;;;;16.29;74.53;98405.93;24776;1325;3052070;-69
2022/09/28 22:04:15;;;;;;;15.90;10.00;;;;;;;16.14;74.71;98410.66;24849;1326;3026598;-61
2022/09/28 22:06:44;;;;;;;15.40;10.20;;;;;;;15.91;74.95;98414.43;24831;1325;3026466;-63
2022/09/28 22:09:13;;;;;;;19.50;11.50;;;;;;;15.64;75.85;98417.64;24748;1326;3053214;-64
2022/09/28 22:11:42;;;;;;;17.60;11.40;;;;;;;15.44;76.51;98424.16;24794;1327;3028746;-61
2022/09/28 22:14:12;;;;;;;11.60;6.30;;;;;;;15.33;76.94;98420.25;24805;1326;3055745;-64
2022/09/28 22:16:42;;;;;;;15.20;8.50;;;;;;;15.84;76.04;98417.27;24764;1326;3026427;-62
2022/09/28 22:19:11;;;;;;;14.90;10.40;;;;;;;16.30;74.60;98417.63;24779;1325;3052929;-64
2022/09/28 22:21:41;;;;;;;16.60;10.20;;;;;;;16.33;74.36;98425.83;24849;1325;3026338;-63
2022/09/28 22:24:10;;;;;;;17.60;11.30;;;;;;;16.15;74.16;98430.48;24785;1327;3026409;-63
2022/09/28 22:26:53;;;;;;;17.10;11.90;;;;;;;15.93;74.85;98443.45;24764;1327;3071032;-65
2022/09/28 22:29:22;;;;;;;20.10;12.20;;;;;;;15.70;75.24;98447.75;24849;1329;3026700;-63
2022/09/28 22:31:51;;;;;;;20.60;12.10;;;;;;;15.51;75.99;98451.04;24705;1327;3050596;-65
2022/09/28 22:34:20;;;;;;;11.30;6.20;;;;;;;15.33;76.89;98457.92;24776;1327;3026793;-62
2022/09/28 22:36:50;;;;;;;13.40;8.60;;;;;;;15.63;76.98;98456.79;24798;1326;3055184;-64
2022/09/28 22:39:18;;;;;;;19.00;10.20;;;;;;;16.08;75.80;98462.45;24852;1327;3025986;-65
2022/09/28 22:41:47;;;;;;;15.90;10.10;;;;;;;16.10;75.33;98463.30;24758;1327;3049034;-66
2022/09/28 22:44:18;;;;;;;16.70;10.50;;;;;;;15.89;75.48;98465.39;24784;1327;3026560;-64
2022/09/28 22:46:47;;;;;;;15.80;9.80;;;;;;;15.63;76.21;98468.73;24828;1327;3026342;-64
2022/09/28 22:49:17;;;;;;;18.40;11.40;;;;;;;15.40;76.89;98468.61;24782;1327;3027510;-67
2022/09/28 22:51:46;;;;;;;18.30;11.10;;;;;;;15.28;77.23;98467.31;24858;1326;3026787;-64
2022/09/28 22:54:15;;;;;;;9.00;5.90;;;;;;;15.12;77.98;98472.21;24823;1325;3050228;-66
2022/09/28 22:56:44;;;;;;;13.80;8.60;;;;;;;15.59;77.33;98469.32;24907;1327;3027427;-66
2022/09/28 22:59:13;;;;;;;19.10;11.10;;;;;;;16.08;75.49;98465.10;24825;1325;3054780;-63
2022/09/28 23:01:42;;;;;;;13.80;9.90;;;;;;;16.16;75.05;98470.16;24741;1327;3026950;-63
2022/09/28 23:04:10;;;;;;;15.00;10.10;;;;;;;15.99;75.17;98476.15;24842;1326;3050935;-62
2022/09/28 23:06:40;;;;;;;17.10;11.40;;;;;;;15.75;75.73;98482.45;24737;1326;3026352;-69
2022/09/28 23:09:10;;;;;;;16.70;10.60;;;;;;;15.56;76.49;98480.92;24836;1327;3058706;-66
2022/09/28 23:11:39;;;;;;;15.70;10.10;;;;;;;15.36;77.10;98483.30;24797;1325;3027010;-63
2022/09/28 23:14:08;;;;;;;10.90;5.80;;;;;;;15.24;77.91;98484.70;24723;1329;3054103;-64
2022/09/28 23:16:37;;;;;;;13.30;7.70;;;;;;;15.77;76.92;98479.73;24690;1327;3028542;-66
2022/09/28 23:19:06;;;;;;;18.70;10.20;;;;;;;16.31;75.03;98469.85;24755;1326;3028136;-63
2022/09/28 23:21:36;;;;;;;15.30;8.80;;;;;;;16.40;74.43;98472.89;24760;1327;3054686;-63
2022/09/28 23:24:05;;;;;;;15.70;9.10;;;;;;;16.26;74.59;98482.19;24744;1327;3027327;-61
2022/09/28 23:26:35;;;;;;;17.50;9.30;;;;;;;16.04;74.88;98483.98;24722;1327;3026400;-62
2022/09/28 23:29:04;;;;;;;14.70;10.00;;;;;;;15.85;75.51;98489.37;24821;1327;3026905;-61
2022/09/28 23:31:34;;;;;;;15.20;9.80;;;;;;;15.68;76.07;98484.83;24782;1327;3026303;-61
2022/09/28 23:34:04;;;;;;;9.20;5.30;;;;;;;15.56;76.69;98489.92;24782;1327;3026397;-62
2022/09/28 23:36:33;;;;;;;11.90;7.20;;;;;;;16.06;75.56;98491.36;24741;1327;3026032;-61
2022/09/28 23:39:02;;;;;;;10.90;8.30;;;;;;;16.51;74.04;98486.89;24813;1326;3026368;-63
2022/09/28 23:41:31;;;;;;;14.00;8.30;;;;;;;16.44;73.79;98491.33;24739;1327;3070522;-65
2022/09/28 23:44:00;;;;;;;12.20;8.80;;;;;;;16.14;74.76;98499.62;24787;1327;3026236;-62
2022/09/28 23:46:29;;;;;;;11.60;8.20;;;;;;;15.83;75.60;98503.34;24732;1327;3051337;-66
2022/09/28 23:48:58;;;;;;;12.70;8.90;;;;;;;15.64;76.39;98505.73;24788;1327;3026704;-64
2022/09/28 23:51:27;;;;;;;12.40;8.30;;;;;;;15.56;76.62;98502.90;24768;1327;3055633;-64
2022/09/28 23:53:56;;;;;;;8.30;5.10;;;;;;;15.50;76.76;98502.08;24772;1327;3026896;-64
2022/09/28 23:56:25;;;;;;;11.40;7.50;;;;;;;16.02;75.66;98505.91;24768;1327;3051597;-65
2022/09/28 23:58:54;;;;;;;13.90;9.00;;;;;;;16.51;74.35;98501.67;24796;1327;3026354;-63
